Time;durP1;ratioP1;P1;durP2;ratioP2;P2;SDS_P1;SDS_P2;PMS_P1;PMS_P2;Temp;Humidity;BMP_temperature;BMP_pressure;BME280_temperature;BME280_humidity;BME280_pressure;Samples;Min_cycle;Max_cycle;Signal;HPM_P1;HPM_P2
2022/08/23 00:00:22;;;;;;;45.80;5.40;;;;;;;24.12;34.72;99218.80;25122;1313;3058700;-66
2022/08/23 00:02:52;;;;;;;30.00;4.90;;;;;;;24.10;34.66;99219.59;25049;1313;3026764;-67
2022/08/23 00:05:21;;;;;;;49.10;5.70;;;;;;;24.06;34.77;99218.27;25102;1313;3026649;-65
2022/08/23 00:07:53;;;;;;;34.10;4.70;;;;;;;24.03;34.83;99220.63;25143;1313;3056675;-64
2022/08/23 00:10:22;;;;;;;29.70;5.20;;;;;;;24.01;34.79;99221.14;25046;1312;3026428;-63
2022/08/23 00:12:51;;;;;;;36.50;4.90;;;;;;;24.00;34.79;99224.54;25151;1313;3054164;-64
2022/08/23 00:15:21;;;;;;;38.30;6.00;;;;;;;23.98;34.80;99223.90;25061;1312;3029103;-67
2022/08/23 00:17:52;;;;;;;46.40;5.50;;;;;;;23.97;35.00;99227.20;25165;1313;3052793;-65
2022/08/23 00:20:21;;;;;;;43.70;5.30;;;;;;;23.95;35.15;99228.36;25098;1312;3026738;-65
2022/08/23 00:22:50;;;;;;;53.40;6.50;;;;;;;23.91;35.14;99231.52;25068;1312;3048425;-64
2022/08/23 00:25:19;;;;;;;60.30;5.50;;;;;;;23.86;35.36;99232.46;25095;1313;3026305;-65
2022/08/23 00:27:48;;;;;;;52.00;5.60;;;;;;;23.84;35.44;99236.98;25057;1313;3071156;-63
2022/08/23 00:30:18;;;;;;;60.50;6.10;;;;;;;23.83;35.64;99238.89;25077;1312;3026775;-67
2022/08/23 00:32:47;;;;;;;35.30;4.70;;;;;;;23.81;35.69;99237.75;25145;1313;3026173;-68
2022/08/23 00:35:16;;;;;;;57.40;6.50;;;;;;;23.81;35.79;99241.47;25080;1312;3026786;-67
2022/08/23 00:37:46;;;;;;;53.90;6.10;;;;;;;23.77;35.97;99250.98;25066;1312;3048242;-68
2022/08/23 00:40:16;;;;;;;30.60;5.50;;;;;;;23.71;36.21;99252.83;25112;1313;3026398;-64
2022/08/23 00:49:13;;;;;;;35.30;5.30;;;;;;;23.65;36.12;99259.67;25085;1313;3054831;-68
2022/08/23 00:51:47;;;;;;;46.60;5.80;;;;;;;23.64;36.01;99264.23;25196;1313;3026791;-68
2022/08/23 00:54:16;;;;;;;48.30;5.60;;;;;;;23.62;36.10;99264.05;25115;1313;3057519;-68
2022/08/23 00:56:46;;;;;;;35.10;5.00;;;;;;;23.57;36.29;99267.67;25076;1313;3026998;-65
2022/08/23 00:59:15;;;;;;;49.60;6.40;;;;;;;23.54;36.17;99263.80;25099;1313;3055285;-70
2022/08/23 01:01:44;;;;;;;41.40;4.90;;;;;;;23.52;36.17;99269.20;25021;1313;3026948;-67
2022/08/23 01:04:13;;;;;;;61.00;6.40;;;;;;;23.51;36.41;99272.86;25126;1312;3054178;-68
2022/08/23 01:07:01;;;;;;;42.60;5.60;;;;;;;23.46;36.50;99271.34;25047;1313;3026850;-66
2022/08/23 01:09:31;;;;;;;32.10;5.40;;;;;;;23.45;36.47;99270.70;25122;1313;3051824;-70
2022/08/23 01:12:15;;;;;;;39.20;5.20;;;;;;;23.38;36.63;99271.52;25046;1313;3026469;-68
2022/08/23 01:14:50;;;;;;;42.60;4.50;;;;;;;23.35;36.77;99273.39;25034;1312;3052227;-67
2022/08/23 01:17:23;;;;;;;40.80;4.90;;;;;;;23.31;36.97;99278.85;25034;1313;3058995;-68
2022/08/23 01:19:57;;;;;;;43.90;5.10;;;;;;;23.27;37.00;99281.55;25196;1312;3028566;-68
2022/08/23 01:22:34;;;;;;;40.30;4.80;;;;;;;23.23;37.01;99282.21;25101;1313;3052855;-70
2022/08/23 01:25:05;;;;;;;45.60;4.50;;;;;;;23.20;36.99;99286.74;25147;1313;3054015;-67
2022/08/23 01:27:37;;;;;;;38.00;6.20;;;;;;;23.18;36.96;99283.36;25058;1313;3026133;-67
2022/08/23 01:30:08;;;;;;;36.60;5.10;;;;;;;23.11;37.08;99283.30;25080;1313;3026515;-69
2022/08/23 01:32:42;;;;;;;44.10;4.60;;;;;;;23.08;37.14;99280.92;25153;1313;3027554;-67
2022/08/23 01:35:12;;;;;;;40.20;4.50;;;;;;;23.10;36.90;99284.77;25133;1313;3026635;-69
2022/08/23 01:37:41;;;;;;;48.30;5.90;;;;;;;23.06;37.11;99289.38;25089;1315;3027240;-67
2022/08/23 01:40:11;;;;;;;34.20;5.60;;;;;;;22.96;37.40;99288.52;25113;1313;3027683;-67
2022/08/23 01:42:41;;;;;;;45.40;5.40;;;;;;;22.90;37.35;99289.70;25131;1316;3026960;-67
2022/08/23 01:45:11;;;;;;;26.30;4.10;;;;;;;22.87;37.45;99286.36;25112;1313;3026725;-67
2022/08/23 01:47:41;;;;;;;35.70;5.10;;;;;;;22.84;37.56;99292.55;25105;1313;3026864;-67
2022/08/23 01:50:11;;;;;;;37.20;5.20;;;;;;;22.78;37.66;99291.88;25101;1313;3026583;-67
2022/08/23 01:52:40;;;;;;;44.90;5.00;;;;;;;22.73;37.85;99289.19;25145;1313;3027128;-66
2022/08/23 01:55:10;;;;;;;36.80;4.50;;;;;;;22.68;38.06;99295.60;25059;1313;3026589;-69
2022/08/23 01:57:40;;;;;;;37.70;4.80;;;;;;;22.64;38.11;99293.86;25153;1313;3026590;-67
2022/08/23 02:00:10;;;;;;;36.50;3.90;;;;;;;22.58;38.43;99295.60;25171;1313;3027577;-69
2022/08/23 02:02:42;;;;;;;30.10;5.50;;;;;;;22.49;38.61;99296.21;25083;1313;3026406;-66
2022/08/23 02:05:13;;;;;;;43.10;4.80;;;;;;;22.47;38.73;99297.66;25105;1313;3028300;-64
2022/08/23 02:07:42;;;;;;;37.00;5.50;;;;;;;22.42;38.80;99297.32;25013;1313;3026419;-65
2022/08/23 02:10:11;;;;;;;28.40;5.00;;;;;;;22.41;38.75;99301.06;25100;1313;3026204;-67
2022/08/23 02:12:40;;;;;;;38.40;4.80;;;;;;;22.32;39.03;99298.41;25097;1316;3053285;-66
2022/08/23 02:15:18;;;;;;;32.00;3.60;;;;;;;22.21;39.35;99293.48;25047;1313;3071749;-65
2022/08/23 02:17:49;;;;;;;31.00;4.30;;;;;;;22.18;39.33;99296.80;25069;1313;3026717;-68
2022/08/23 02:20:19;;;;;;;23.10;4.40;;;;;;;22.11;39.49;99298.66;25099;1313;3026817;-65
2022/08/23 02:22:48;;;;;;;41.70;4.20;;;;;;;22.07;39.60;99296.37;25059;1316;3026468;-66
2022/08/23 02:25:17;;;;;;;37.40;5.30;;;;;;;22.01;39.88;99300.50;25095;1313;3051233;-66
2022/08/23 02:27:46;;;;;;;38.40;5.20;;;;;;;21.95;39.87;99303.95;25089;1312;3026967;-64
2022/08/23 02:30:15;;;;;;;38.50;4.20;;;;;;;21.93;40.01;99307.02;25086;1313;3070745;-67
2022/08/23 02:32:45;;;;;;;26.60;3.40;;;;;;;21.92;40.00;99310.05;25084;1313;3026345;-63
2022/08/23 02:35:14;;;;;;;31.30;4.90;;;;;;;21.90;40.20;99313.86;25107;1313;3027061;-63
2022/08/23 02:37:43;;;;;;;28.00;3.90;;;;;;;21.84;40.49;99315.71;25112;1313;3027568;-65
2022/08/23 02:40:12;;;;;;;31.80;4.00;;;;;;;21.77;40.55;99321.27;25088;1313;3050776;-67
2022/08/23 02:42:42;;;;;;;27.00;3.80;;;;;;;21.73;40.68;99324.05;25051;1313;3026401;-67
2022/08/23 02:45:11;;;;;;;32.60;4.00;;;;;;;21.73;40.66;99327.06;25109;1313;3026603;-64
2022/08/23 02:47:46;;;;;;;36.50;4.10;;;;;;;21.71;40.61;99328.33;25046;1313;3048211;-65
2022/08/23 02:50:26;;;;;;;26.50;4.00;;;;;;;21.66;41.12;99334.77;25036;1313;3054856;-62
2022/08/23 02:52:56;;;;;;;30.60;4.60;;;;;;;21.64;41.10;99341.41;25107;1313;3027278;-64
2022/08/23 02:55:25;;;;;;;31.50;4.20;;;;;;;21.60;41.19;99342.56;25099;1313;3027052;-64
2022/08/23 02:57:54;;;;;;;34.70;4.10;;;;;;;21.55;41.34;99347.18;25120;1313;3026646;-65
2022/08/23 03:00:23;;;;;;;39.30;5.90;;;;;;;21.50;41.65;99350.09;25064;1313;3051683;-65
2022/08/23 03:02:52;;;;;;;24.90;5.00;;;;;;;21.46;41.87;99351.29;25081;1313;3027328;-63
2022/08/23 03:05:22;;;;;;;29.40;3.90;;;;;;;21.46;41.68;99352.43;25059;1316;3054067;-65
2022/08/23 03:07:52;;;;;;;30.70;4.30;;;;;;;21.43;41.95;99357.51;25038;1313;3026785;-65
2022/08/23 03:10:21;;;;;;;24.00;3.30;;;;;;;21.41;42.20;99359.21;25041;1313;3026667;-66
2022/08/23 03:12:56;;;;;;;27.80;3.80;;;;;;;21.41;42.32;99362.05;25046;1313;3050421;-65
2022/08/23 03:15:25;;;;;;;25.10;4.40;;;;;;;21.36;42.27;99366.59;25123;1313;3026190;-64
2022/08/23 03:17:54;;;;;;;22.20;3.80;;;;;;;21.39;42.12;99370.49;25038;1313;3058117;-64
2022/08/23 03:20:23;;;;;;;22.40;4.10;;;;;;;21.39;42.23;99373.00;25115;1313;3026691;-64
2022/08/23 03:22:52;;;;;;;33.30;4.00;;;;;;;21.38;42.04;99371.80;25084;1313;3055659;-64
2022/08/23 03:25:22;;;;;;;39.10;4.00;;;;;;;21.35;42.16;99374.30;24980;1316;3026969;-63
2022/08/23 03:28:09;;;;;;;39.90;4.40;;;;;;;21.32;42.43;99376.77;25097;1313;3052210;-64
2022/08/23 03:30:40;;;;;;;32.50;4.90;;;;;;;21.33;42.38;99386.61;25045;1313;3026746;-64
2022/08/23 03:33:10;;;;;;;19.30;3.30;;;;;;;21.32;42.59;99383.52;25107;1313;3026969;-65
2022/08/23 03:35:39;;;;;;;22.70;3.80;;;;;;;21.32;42.46;99386.31;25090;1313;3026403;-63
2022/08/23 03:38:09;;;;;;;21.70;3.80;;;;;;;21.35;42.62;99387.86;25115;1313;3052634;-66
2022/08/23 03:40:39;;;;;;;29.80;4.80;;;;;;;21.32;42.67;99390.83;25070;1313;3027564;-69
2022/08/23 03:43:09;;;;;;;24.00;4.00;;;;;;;21.33;42.70;99394.10;25103;1313;3026555;-67
2022/08/23 03:45:38;;;;;;;28.40;4.70;;;;;;;21.34;42.83;99394.51;25040;1313;3028331;-68
2022/08/23 03:48:08;;;;;;;27.10;5.40;;;;;;;21.33;42.92;99394.80;25153;1316;3027453;-65
2022/08/23 03:50:38;;;;;;;33.70;5.90;;;;;;;21.30;43.09;99396.73;25143;1313;3027265;-66
2022/08/23 03:53:07;;;;;;;27.80;4.60;;;;;;;21.29;43.11;99403.94;25077;1313;3049748;-68
2022/08/23 03:55:36;;;;;;;22.30;5.10;;;;;;;21.29;43.27;99397.45;25139;1313;3026175;-67
2022/08/23 03:58:05;;;;;;;25.20;4.80;;;;;;;21.34;42.85;99399.89;25046;1313;3026360;-68
2022/08/23 04:00:34;;;;;;;29.10;4.50;;;;;;;21.33;43.01;99398.20;25154;1313;3048461;-65
2022/08/23 04:03:03;;;;;;;26.10;3.80;;;;;;;21.35;43.00;99402.02;25157;1313;3030288;-68
2022/08/23 04:05:35;;;;;;;27.10;5.20;;;;;;;21.33;43.17;99405.69;25206;1316;3069602;-67
2022/08/23 04:08:10;;;;;;;27.10;4.30;;;;;;;21.32;43.18;99404.13;25036;1315;3048990;-67
2022/08/23 04:10:40;;;;;;;26.20;4.50;;;;;;;21.35;43.11;99408.84;25134;1316;3027334;-67
2022/08/23 04:13:10;;;;;;;26.30;4.60;;;;;;;21.34;43.38;99402.15;25057;1315;3026727;-69
2022/08/23 04:15:41;;;;;;;25.00;4.60;;;;;;;21.40;43.54;99405.60;25124;1315;3048295;-67
2022/08/23 04:18:10;;;;;;;22.30;3.80;;;;;;;21.44;43.35;99408.37;25164;1315;3029402;-68
2022/08/23 04:20:39;;;;;;;20.60;4.70;;;;;;;21.51;43.16;99412.67;25035;1316;3069577;-69
2022/08/23 04:23:08;;;;;;;22.90;3.80;;;;;;;21.53;43.37;99416.16;25091;1316;3026785;-67
2022/08/23 04:25:46;;;;;;;22.60;3.70;;;;;;;21.58;43.01;99417.48;25162;1316;3051676;-70
2022/08/23 04:28:15;;;;;;;18.70;4.00;;;;;;;21.57;42.98;99417.58;25132;1315;3026360;-70
2022/08/23 04:30:44;;;;;;;18.70;4.30;;;;;;;21.61;43.09;99413.88;25147;1315;3028490;-69
2022/08/23 04:33:13;;;;;;;25.20;4.00;;;;;;;21.65;42.80;99411.17;25114;1316;3051650;-66
2022/08/23 04:35:42;;;;;;;25.70;4.30;;;;;;;21.72;42.64;99413.61;25140;1313;3029284;-65
2022/08/23 04:38:12;;;;;;;15.50;4.20;;;;;;;21.76;42.99;99409.96;25065;1313;3051518;-67
2022/08/23 04:43:29;;;;;;;25.10;5.40;;;;;;;21.86;42.78;99422.77;25078;1313;3070931;-65
2022/08/23 04:45:58;;;;;;;18.00;3.40;;;;;;;21.89;43.16;99419.27;25042;1313;3026766;-65
2022/08/23 04:48:34;;;;;;;21.20;3.90;;;;;;;21.95;43.14;99419.13;25154;1313;3051139;-68
2022/08/23 04:51:04;;;;;;;15.60;3.30;;;;;;;21.99;43.31;99417.83;25117;1313;3026330;-67
2022/08/23 04:53:38;;;;;;;18.90;2.90;;;;;;;22.06;42.92;99416.85;25095;1313;3050252;-65
2022/08/23 04:56:30;;;;;;;17.10;3.60;;;;;;;22.13;42.79;99423.09;25147;1313;3054993;-69
2022/08/23 04:58:59;;;;;;;20.00;3.50;;;;;;;22.20;42.60;99426.09;25172;1313;3026715;-65
2022/08/23 05:01:29;;;;;;;23.50;4.20;;;;;;;22.27;42.62;99421.73;25139;1313;3026883;-65
2022/08/23 05:03:59;;;;;;;22.70;3.30;;;;;;;22.34;42.32;99428.95;25080;1313;3054209;-64
2022/08/23 05:06:28;;;;;;;19.70;3.70;;;;;;;22.40;42.18;99434.81;25125;1313;3026315;-68
2022/08/23 05:09:00;;;;;;;15.30;3.00;;;;;;;22.48;42.16;99430.19;25119;1312;3028309;-66
2022/08/23 05:11:30;;;;;;;16.30;4.30;;;;;;;22.54;42.24;99429.27;25184;1312;3026502;-67
2022/08/23 05:14:00;;;;;;;27.10;3.50;;;;;;;22.59;42.15;99428.42;25138;1312;3026108;-67
2022/08/23 05:16:29;;;;;;;18.40;3.10;;;;;;;22.62;41.84;99427.38;25138;1315;3028762;-68
2022/08/23 05:19:04;;;;;;;17.70;3.20;;;;;;;22.72;41.65;99428.70;25119;1313;3071052;-65
2022/08/23 05:21:36;;;;;;;15.70;3.20;;;;;;;22.80;41.38;99428.55;25145;1312;3026967;-66
2022/08/23 05:24:05;;;;;;;17.50;3.00;;;;;;;22.91;41.22;99429.42;25159;1313;3027302;-63
2022/08/23 05:26:34;;;;;;;17.50;3.40;;;;;;;22.97;40.87;99428.43;25087;1315;3026851;-65
2022/08/23 05:29:04;;;;;;;15.50;3.60;;;;;;;23.07;40.52;99434.39;25164;1314;3026935;-66
2022/08/23 05:31:37;;;;;;;13.70;2.70;;;;;;;23.14;40.41;99428.34;25135;1315;3052574;-72
2022/08/23 05:34:07;;;;;;;15.10;2.50;;;;;;;23.24;39.60;99435.36;25140;1312;3026307;-66
2022/08/23 05:36:42;;;;;;;11.10;3.00;;;;;;;23.35;39.49;99434.04;25030;1315;3057726;-71
2022/08/23 05:39:10;;;;;;;16.10;3.30;;;;;;;23.43;39.28;99438.21;25109;1316;3026505;-71
2022/08/23 05:41:41;;;;;;;15.40;2.40;;;;;;;23.55;39.18;99429.95;25218;1313;3052280;-73
2022/08/23 05:44:10;;;;;;;15.50;3.10;;;;;;;23.64;38.54;99435.62;25144;1313;3026571;-69
2022/08/23 05:46:41;;;;;;;18.50;3.30;;;;;;;23.71;38.44;99437.81;25133;1315;3026551;-69
2022/08/23 05:49:24;;;;;;;20.70;5.20;;;;;;;23.84;38.01;99436.05;25137;1316;3053294;-73
2022/08/23 05:51:53;;;;;;;17.40;2.70;;;;;;;23.92;37.21;99432.91;25137;1316;3027973;-67
2022/08/23 05:54:23;;;;;;;11.60;2.30;;;;;;;24.03;36.81;99437.27;25170;1315;3050242;-68
2022/08/23 05:57:06;;;;;;;17.80;2.70;;;;;;;24.12;36.97;99436.54;25055;1316;3054836;-67
2022/08/23 05:59:35;;;;;;;14.80;2.80;;;;;;;24.22;36.73;99437.95;25082;1315;3026914;-68
2022/08/23 06:02:06;;;;;;;12.80;2.40;;;;;;;24.32;36.08;99435.77;25093;1313;3055083;-64
2022/08/23 06:04:37;;;;;;;11.90;2.40;;;;;;;24.45;35.96;99437.98;25065;1316;3026609;-66
2022/08/23 06:07:10;;;;;;;18.50;3.30;;;;;;;24.56;35.81;99442.27;25138;1316;3026293;-70
2022/08/23 06:09:39;;;;;;;14.40;2.60;;;;;;;24.67;35.41;99442.71;25150;1316;3026903;-69
2022/08/23 06:12:09;;;;;;;12.60;2.50;;;;;;;24.78;35.34;99450.16;25100;1316;3026968;-69
2022/08/23 06:14:40;;;;;;;11.50;2.50;;;;;;;24.88;34.90;99445.38;25115;1316;3026538;-66
2022/08/23 06:17:10;;;;;;;11.70;2.80;;;;;;;25.00;34.43;99448.27;25033;1313;3026525;-64
2022/08/23 06:19:40;;;;;;;9.90;2.30;;;;;;;25.09;34.06;99443.58;25108;1313;3048768;-65
2022/08/23 06:22:18;;;;;;;14.00;2.90;;;;;;;25.17;34.32;99442.38;25161;1316;3055333;-69
2022/08/23 06:24:49;;;;;;;21.90;3.00;;;;;;;25.26;34.12;99442.78;25166;1313;3030509;-71
2022/08/23 06:27:18;;;;;;;14.10;2.40;;;;;;;25.29;33.62;99444.98;25262;1313;3026615;-72
2022/08/23 06:29:48;;;;;;;17.80;3.20;;;;;;;25.35;33.47;99448.45;25171;1315;3026288;-69
2022/08/23 06:32:35;;;;;;;12.90;2.30;;;;;;;25.48;33.87;99448.02;25168;1312;3055185;-68
2022/08/23 06:35:25;;;;;;;15.30;2.30;;;;;;;25.54;33.34;99446.30;25136;1316;3058709;-69
2022/08/23 06:38:05;;;;;;;9.40;2.20;;;;;;;25.62;33.51;99456.02;25145;1315;3050756;-73
2022/08/23 06:40:59;;;;;;;17.60;2.90;;;;;;;25.71;33.90;99455.99;25136;1315;3055668;-67
2022/08/23 06:43:28;;;;;;;11.70;2.70;;;;;;;25.78;34.03;99452.33;25151;1313;3053689;-69
2022/08/23 06:46:26;;;;;;;18.00;2.50;;;;;;;25.91;33.89;99459.15;25096;1315;3071078;-68
2022/08/23 06:48:56;;;;;;;18.00;2.50;;;;;;;26.00;33.89;99454.05;24220;1313;4914790;-70
2022/08/23 06:51:30;;;;;;;14.40;3.50;;;;;;;26.10;33.17;99453.17;25182;1313;3050249;-65
2022/08/23 06:54:12;;;;;;;11.10;2.80;;;;;;;26.27;32.81;99458.02;25124;1312;3069427;-67
2022/08/23 06:57:01;;;;;;;9.40;2.30;;;;;;;26.36;33.46;99464.85;25074;1316;3052406;-68
2022/08/23 06:59:32;;;;;;;10.20;2.70;;;;;;;26.40;33.29;99460.86;25128;1316;3026593;-69
2022/08/23 07:02:15;;;;;;;9.90;2.70;;;;;;;26.42;32.58;99460.41;25134;1312;3054862;-71
2022/08/23 07:05:00;;;;;;;10.30;2.50;;;;;;;26.45;32.44;99465.36;25117;1316;3060123;-69
2022/08/23 07:07:49;;;;;;;15.00;2.90;;;;;;;26.45;31.87;99460.94;25125;1315;3052706;-69
2022/08/23 07:10:19;;;;;;;15.30;3.00;;;;;;;26.46;32.05;99475.95;25139;1316;3026452;-65
2022/08/23 07:12:48;;;;;;;16.40;2.70;;;;;;;26.46;31.86;99471.02;25126;1313;3026523;-72
2022/08/23 07:19:10;;;;;;;15.30;3.00;;;;;;;26.74;32.09;99476.81;25140;1315;3049072;-71
2022/08/23 07:21:40;;;;;;;10.10;2.80;;;;;;;26.87;31.89;99475.97;25191;1315;3026790;-71
2022/08/23 07:24:09;;;;;;;10.70;2.50;;;;;;;26.95;31.71;99475.92;25126;1316;3027031;-68
2022/08/23 07:26:39;;;;;;;8.70;2.40;;;;;;;27.03;31.37;99477.42;25105;1316;3026326;-68
2022/08/23 07:29:10;;;;;;;9.30;2.70;;;;;;;27.11;31.61;99483.14;25135;1315;3051786;-69
2022/08/23 07:31:41;;;;;;;6.70;2.40;;;;;;;27.19;31.66;99480.42;25135;1318;3027045;-68
2022/08/23 07:34:13;;;;;;;10.60;2.60;;;;;;;27.32;31.66;99483.21;25107;1315;3056707;-71
2022/08/23 07:36:44;;;;;;;12.50;2.40;;;;;;;27.40;31.45;99482.69;25085;1316;3026522;-72
2022/08/23 07:39:14;;;;;;;10.30;2.70;;;;;;;27.49;30.75;99482.46;25156;1313;3026736;-69
2022/08/23 07:41:43;;;;;;;20.40;3.20;;;;;;;27.52;30.53;99485.67;25156;1316;3031188;-73
2022/08/23 07:44:13;;;;;;;8.10;2.70;;;;;;;27.55;30.59;99489.34;25115;1313;3027349;-69
2022/08/23 07:46:44;;;;;;;13.30;2.60;;;;;;;27.59;30.45;99487.15;25183;1313;3052800;-65
2022/08/23 07:49:14;;;;;;;15.90;2.50;;;;;;;27.64;30.32;99489.10;25009;1313;3026689;-71
2022/08/23 07:55:31;;;;;;;6.80;2.30;;;;;;;27.83;30.02;99493.99;25157;1313;3049553;-69
2022/08/23 07:58:09;;;;;;;15.10;2.40;;;;;;;27.94;30.36;99497.92;25146;1313;3051843;-70
2022/08/23 08:01:35;;;;;;;13.40;2.50;;;;;;;28.07;30.59;99495.44;25140;1313;3055754;-70
2022/08/23 08:04:04;;;;;;;15.80;3.10;;;;;;;28.23;30.71;99495.44;25063;1316;3056409;-69
2022/08/23 08:06:47;;;;;;;12.30;2.70;;;;;;;28.35;30.11;99494.94;25093;1313;3027265;-69
2022/08/23 08:09:18;;;;;;;12.90;2.60;;;;;;;28.39;29.49;99490.31;25163;1313;3053007;-69
2022/08/23 08:11:48;;;;;;;14.10;2.40;;;;;;;28.48;29.55;99497.11;25173;1313;3026652;-71
2022/08/23 08:14:20;;;;;;;10.30;2.60;;;;;;;28.46;29.38;99493.98;25144;1316;3026483;-69
2022/08/23 08:16:55;;;;;;;6.70;2.90;;;;;;;28.51;29.34;99501.41;25165;1313;3028610;-70
2022/08/23 08:19:56;;;;;;;14.20;3.00;;;;;;;28.57;29.67;99500.98;25102;1315;3055233;-70
2022/08/23 08:22:44;;;;;;;5.90;2.10;;;;;;;28.66;29.27;99494.80;25157;1316;3055095;-69
2022/08/23 08:25:46;;;;;;;9.30;2.40;;;;;;;28.83;29.81;99501.95;25073;1316;3058814;-69
2022/08/23 08:28:16;;;;;;;11.50;2.50;;;;;;;28.93;29.67;99490.50;25100;1315;3026849;-69
2022/08/23 08:30:45;;;;;;;11.60;2.20;;;;;;;28.98;28.87;99494.14;25065;1318;3026390;-68
2022/08/23 08:33:17;;;;;;;9.20;2.30;;;;;;;29.12;28.50;99490.39;25151;1313;3026686;-69
2022/08/23 08:35:48;;;;;;;11.00;2.80;;;;;;;29.21;28.06;99491.73;25159;1313;3026589;-71
2022/08/23 08:38:17;;;;;;;8.60;2.20;;;;;;;29.24;27.65;99494.30;25120;1316;3027085;-73
2022/08/23 08:40:47;;;;;;;16.90;2.50;;;;;;;29.32;27.40;99495.86;25125;1316;3026406;-70
2022/08/23 08:43:29;;;;;;;7.20;2.40;;;;;;;29.38;27.38;99499.13;25087;1316;3069422;-70
2022/08/23 08:46:01;;;;;;;5.70;2.20;;;;;;;29.51;27.44;99494.08;25075;1315;3049811;-67
2022/08/23 08:48:39;;;;;;;7.80;2.00;;;;;;;29.64;27.61;99488.52;25182;1313;3055218;-70
2022/08/23 08:51:25;;;;;;;8.80;2.40;;;;;;;29.73;27.20;99488.98;25155;1313;3052383;-72
2022/08/23 08:53:55;;;;;;;6.20;2.60;;;;;;;29.85;27.14;99489.57;25103;1315;3057809;-73
2022/08/23 08:56:35;;;;;;;7.50;2.10;;;;;;;29.93;26.70;99484.12;25066;1315;3051750;-69
2022/08/23 08:59:21;;;;;;;7.60;2.10;;;;;;;30.05;26.74;99489.48;25147;1316;3056234;-70
2022/08/23 09:01:50;;;;;;;10.60;2.70;;;;;;;30.20;27.05;99481.23;25044;1316;3026228;-70
2022/08/23 09:04:25;;;;;;;6.20;1.90;;;;;;;30.20;26.08;99476.11;25159;1312;3068712;-71
2022/08/23 09:07:10;;;;;;;8.30;2.20;;;;;;;30.28;25.62;99481.88;25136;1318;3026467;-68
2022/08/23 09:10:10;;;;;;;9.50;2.40;;;;;;;30.25;24.97;99472.02;25100;1315;3051873;-70
2022/08/23 09:13:04;;;;;;;12.30;2.30;;;;;;;30.36;25.15;99480.17;25129;1316;3068870;-70
2022/08/23 09:15:56;;;;;;;12.90;2.70;;;;;;;30.38;24.92;99478.67;25074;1313;3049873;-69
2022/08/23 09:18:26;;;;;;;8.50;2.60;;;;;;;30.44;24.88;99478.66;25000;1316;3053078;-70
2022/08/23 09:20:57;;;;;;;11.70;2.80;;;;;;;30.51;24.93;99477.65;25138;1315;3028402;-72
2022/08/23 09:23:33;;;;;;;10.10;2.30;;;;;;;30.58;25.11;99476.61;25115;1316;3027252;-68
2022/08/23 09:26:04;;;;;;;15.20;2.50;;;;;;;30.69;25.12;99478.94;25140;1313;3050588;-68
2022/08/23 09:28:39;;;;;;;12.00;2.40;;;;;;;30.75;24.87;99484.70;25089;1316;3055435;-67
2022/08/23 09:31:08;;;;;;;12.30;2.30;;;;;;;30.87;24.85;99482.20;25215;1312;3028284;-69
2022/08/23 09:33:40;;;;;;;7.80;2.10;;;;;;;30.94;24.95;99483.74;25128;1316;3026702;-70
2022/08/23 09:36:26;;;;;;;9.60;2.50;;;;;;;31.00;24.92;99482.29;25162;1313;3028103;-68
2022/08/23 09:39:25;;;;;;;4.30;2.10;;;;;;;31.05;24.80;99484.09;25135;1316;3053611;-69
2022/08/23 09:41:55;;;;;;;8.10;2.40;;;;;;;31.09;24.87;99482.22;25154;1313;3054859;-70
2022/08/23 09:44:38;;;;;;;5.90;2.10;;;;;;;31.20;24.86;99480.16;25170;1316;3027495;-69
2022/08/23 09:47:11;;;;;;;9.10;2.60;;;;;;;31.24;24.58;99490.38;25115;1313;3055465;-69
2022/08/23 09:49:44;;;;;;;6.90;2.20;;;;;;;31.34;24.58;99479.73;25122;1313;3051699;-65
2022/08/23 09:52:17;;;;;;;6.80;2.60;;;;;;;31.38;24.20;99477.34;25155;1315;3026804;-64
2022/08/23 09:54:58;;;;;;;8.90;2.00;;;;;;;31.40;23.95;99481.83;25104;1313;3051768;-68
2022/08/23 09:57:29;;;;;;;13.60;2.70;;;;;;;31.53;23.95;99480.59;25187;1313;3052575;-70
2022/08/23 10:00:00;;;;;;;3.80;2.10;;;;;;;31.66;24.23;99478.94;25111;1313;3026828;-69
2022/08/23 10:02:31;;;;;;;7.90;2.40;;;;;;;31.75;24.07;99483.02;25223;1316;3026648;-69
2022/08/23 10:05:18;;;;;;;6.00;1.90;;;;;;;31.84;23.71;99485.05;25189;1313;3051524;-69
2022/08/23 10:07:59;;;;;;;3.80;2.00;;;;;;;31.95;23.76;99481.01;25160;1313;3052662;-70
2022/08/23 10:10:48;;;;;;;4.80;2.60;;;;;;;32.06;23.97;99484.80;25117;1313;3052957;-72
2022/08/23 10:13:19;;;;;;;7.20;2.30;;;;;;;32.19;24.66;99481.23;25090;1313;3055863;-69
2022/08/23 10:16:21;;;;;;;7.30;2.40;;;;;;;32.21;23.95;99477.30;25163;1312;3026477;-69
2022/08/23 10:19:22;;;;;;;8.50;2.10;;;;;;;32.25;23.90;99483.88;25131;1316;3055838;-69
2022/08/23 10:22:14;;;;;;;7.30;2.50;;;;;;;32.32;24.17;99480.16;25140;1316;3051709;-67
2022/08/23 10:25:04;;;;;;;9.80;2.40;;;;;;;32.38;23.42;99485.81;25106;1313;3071827;-67
2022/08/23 10:31:01;;;;;;;7.50;2.30;;;;;;;32.49;23.39;99484.58;25144;1316;3055192;-67
2022/08/23 10:33:37;;;;;;;4.00;1.90;;;;;;;32.48;23.10;99475.75;25111;1316;3055247;-68
2022/08/23 10:36:17;;;;;;;7.20;2.20;;;;;;;32.54;22.67;99474.85;25162;1316;3058453;-69
2022/08/23 10:39:02;;;;;;;6.70;2.50;;;;;;;32.64;22.98;99479.30;25067;1316;3051825;-69
2022/08/23 10:41:34;;;;;;;11.80;2.00;;;;;;;32.69;22.89;99484.70;25078;1318;3055858;-67
2022/08/23 10:44:33;;;;;;;5.50;2.70;;;;;;;32.74;22.62;99479.67;25137;1316;3026383;-72
2022/08/23 10:47:15;;;;;;;8.40;2.50;;;;;;;32.66;22.65;99477.02;25104;1316;3070298;-69
2022/08/23 10:49:47;;;;;;;7.00;2.30;;;;;;;32.76;22.58;99470.48;25110;1316;3049046;-71
2022/08/23 10:52:27;;;;;;;12.00;2.20;;;;;;;32.81;22.28;99474.70;25174;1316;3026255;-72
2022/08/23 10:54:59;;;;;;;15.10;2.90;;;;;;;32.83;22.50;99470.61;25147;1316;3054955;-67
2022/08/23 10:57:36;;;;;;;8.60;2.20;;;;;;;32.87;22.23;99476.26;25240;1316;3028300;-69
2022/08/23 11:00:07;;;;;;;6.20;2.60;;;;;;;32.99;22.40;99473.66;25170;1315;3049540;-69
2022/08/23 11:02:43;;;;;;;5.70;2.20;;;;;;;33.10;22.52;99462.89;25212;1315;3026483;-70
2022/08/23 11:05:27;;;;;;;6.60;2.40;;;;;;;33.26;22.26;99463.16;25546;1316;3054349;-70
2022/08/23 11:08:04;;;;;;;5.70;2.10;;;;;;;33.36;22.40;99463.96;25130;1316;3071086;-69
2022/08/23 11:10:36;;;;;;;11.10;2.40;;;;;;;33.46;22.75;99464.25;25160;1316;3050369;-71
2022/08/23 11:13:22;;;;;;;6.00;2.60;;;;;;;33.42;21.94;99460.05;25161;1316;3026959;-70
2022/08/23 11:15:59;;;;;;;4.40;2.20;;;;;;;33.46;21.98;99464.20;25124;1319;3051147;-72
2022/08/23 11:18:32;;;;;;;9.20;2.30;;;;;;;33.54;21.72;99463.77;25167;1315;3057574;-71
2022/08/23 11:21:18;;;;;;;7.60;3.00;;;;;;;33.57;21.71;99464.52;25141;1316;3026910;-69
2022/08/23 11:23:58;;;;;;;7.00;2.60;;;;;;;33.67;21.80;99462.95;25116;1316;3053195;-69
2022/08/23 11:26:30;;;;;;;;;;;;;;;33.67;21.06;99462.84;25175;1313;3050400;-70
2022/08/23 11:29:05;;;;;;;9.30;2.00;;;;;;;33.70;21.04;99462.56;25102;1313;3027049;-71
2022/08/23 11:31:54;;;;;;;4.20;2.50;;;;;;;33.73;20.92;99459.44;25098;1316;3049514;-70
2022/08/23 11:34:29;;;;;;;5.90;2.30;;;;;;;33.90;21.10;99462.28;25140;1313;3052510;-71
2022/08/23 11:37:18;;;;;;;10.50;2.40;;;;;;;34.03;21.14;99464.06;25114;1313;3053097;-71
2022/08/23 11:39:56;;;;;;;4.90;2.50;;;;;;;34.11;20.85;99460.59;25121;1313;3058827;-73
2022/08/23 11:42:28;;;;;;;9.90;2.10;;;;;;;34.17;20.55;99456.81;25141;1316;3049956;-71
2022/08/23 11:44:57;;;;;;;7.00;2.30;;;;;;;34.16;20.55;99456.67;25117;1316;3026790;-69
2022/08/23 11:47:27;;;;;;;3.90;2.10;;;;;;;34.19;20.69;99458.08;25130;1316;3026559;-71
2022/08/23 11:50:16;;;;;;;8.70;2.30;;;;;;;34.28;20.68;99459.87;25114;1313;3051697;-71
2022/08/23 11:53:13;;;;;;;9.10;2.70;;;;;;;34.34;20.54;99456.60;25126;1316;3055512;-72
2022/08/23 11:55:50;;;;;;;7.20;2.50;;;;;;;34.38;20.76;99455.61;25159;1316;3053890;-71
2022/08/23 11:58:44;;;;;;;6.30;2.30;;;;;;;34.47;20.65;99454.27;25151;1313;3068328;-70
2022/08/23 12:01:13;;;;;;;4.30;2.60;;;;;;;34.62;20.98;99453.66;25105;1316;3049060;-72
2022/08/23 12:03:55;;;;;;;7.40;2.80;;;;;;;34.69;20.87;99454.80;25154;1313;3026432;-70